Time;durP1;ratioP1;P1;durP2;ratioP2;P2;SDS_P1;SDS_P2;PMS_P1;PMS_P2;Temp;Humidity;BMP_temperature;BMP_pressure;BME280_temperature;BME280_humidity;BME280_pressure;Samples;Min_cycle;Max_cycle;Signal;HPM_P1;HPM_P2
2024/02/04 00:00:05;;;;;;;16.77;7.35;;;1.50;99.90;;;;;;5000162;28;20022;-77
2024/02/04 00:02:31;;;;;;;17.73;7.38;;;1.50;99.90;;;;;;5017201;28;20026;-76
2024/02/04 00:04:56;;;;;;;17.30;7.63;;;1.50;99.90;;;;;;5017558;28;20157;-77
2024/02/04 00:07:22;;;;;;;11.68;6.03;;;1.50;99.90;;;;;;5018320;28;20077;-77
2024/02/04 00:09:47;;;;;;;11.07;6.60;;;1.70;99.90;;;;;;5017376;28;20475;-76
2024/02/04 00:12:13;;;;;;;16.48;7.65;;;1.60;99.90;;;;;;5000037;28;20025;-77
2024/02/04 00:14:39;;;;;;;16.58;7.18;;;1.70;99.90;;;;;;5001507;28;20069;-77
2024/02/04 00:17:04;;;;;;;15.32;7.45;;;1.70;99.90;;;;;;5017870;28;20053;-77
2024/02/04 00:19:30;;;;;;;14.45;7.05;;;1.70;99.90;;;;;;5018099;28;20030;-77
2024/02/04 00:21:56;;;;;;;14.00;7.00;;;1.70;99.90;;;;;;4999361;28;20026;-76
2024/02/04 00:24:21;;;;;;;12.07;7.18;;;1.70;99.90;;;;;;5017853;28;20420;-77
2024/02/04 00:26:47;;;;;;;10.65;6.57;;;1.60;99.90;;;;;;5017936;28;20084;-77
2024/02/04 00:29:13;;;;;;;12.70;7.15;;;1.60;99.90;;;;;;4999396;28;20029;-76
2024/02/04 00:31:39;;;;;;;10.80;6.05;;;1.70;99.90;;;;;;5000391;28;20493;-77
2024/02/04 00:34:05;;;;;;;12.63;6.63;;;1.60;99.90;;;;;;4999854;28;20562;-77
2024/02/04 00:36:30;;;;;;;9.90;5.75;;;1.60;99.90;;;;;;5018134;28;20021;-77
2024/02/04 00:38:56;;;;;;;10.88;6.68;;;1.50;99.90;;;;;;5017565;28;20097;-77
2024/02/04 00:41:22;;;;;;;12.57;6.93;;;1.50;99.90;;;;;;5017993;28;20022;-77
2024/02/04 00:43:47;;;;;;;12.55;6.18;;;1.50;99.90;;;;;;5017272;28;20029;-77
2024/02/04 00:46:13;;;;;;;9.93;5.93;;;1.70;99.90;;;;;;5017397;28;20026;-77
2024/02/04 00:48:40;;;;;;;12.23;6.15;;;1.70;99.90;;;;;;5000014;28;20554;-77
2024/02/04 00:51:06;;;;;;;12.60;6.53;;;1.80;99.90;;;;;;4999436;28;20030;-77
2024/02/04 00:53:35;;;;;;;15.30;7.28;;;1.90;99.90;;;;;;5016651;28;20033;-76
2024/02/04 00:56:04;;;;;;;14.30;6.40;;;2.00;99.90;;;;;;5017023;28;20025;-77
2024/02/04 00:58:30;;;;;;;11.35;6.03;;;1.90;99.90;;;;;;5000558;28;20026;-77
2024/02/04 01:00:56;;;;;;;14.38;7.00;;;1.90;99.90;;;;;;4999417;28;20032;-77
2024/02/04 01:03:21;;;;;;;9.60;5.63;;;1.90;99.90;;;;;;5000014;28;20030;-77
2024/02/04 01:05:47;;;;;;;12.48;6.47;;;2.00;99.90;;;;;;5017205;28;20369;-77
2024/02/04 01:08:12;;;;;;;10.13;5.85;;;1.90;99.90;;;;;;4999512;28;20385;-77
2024/02/04 01:10:38;;;;;;;10.70;6.43;;;1.80;99.90;;;;;;5000068;28;20441;-76
2024/02/04 01:13:04;;;;;;;13.02;5.55;;;1.80;99.90;;;;;;5000095;28;20101;-77
2024/02/04 01:15:30;;;;;;;9.13;5.68;;;1.80;99.90;;;;;;5017926;28;20029;-77
2024/02/04 01:17:55;;;;;;;12.50;6.05;;;1.80;99.90;;;;;;4998652;28;20033;-78
2024/02/04 01:20:21;;;;;;;12.88;6.07;;;1.80;99.90;;;;;;4998559;28;20029;-77
2024/02/04 01:22:47;;;;;;;12.68;6.85;;;1.90;99.90;;;;;;4999906;28;20452;-77
2024/02/04 01:25:13;;;;;;;8.43;5.47;;;2.00;99.90;;;;;;4998853;28;20093;-77
2024/02/04 01:27:38;;;;;;;13.43;7.53;;;1.90;99.90;;;;;;4999665;28;20032;-77
2024/02/04 01:30:05;;;;;;;13.10;5.82;;;2.00;99.90;;;;;;5016915;28;20073;-77
2024/02/04 01:32:30;;;;;;;10.02;6.05;;;1.70;99.90;;;;;;5017891;28;20527;-77
2024/02/04 01:34:56;;;;;;;10.90;5.47;;;1.70;99.90;;;;;;4999298;28;20030;-77
2024/02/04 01:37:21;;;;;;;12.23;6.00;;;1.70;99.90;;;;;;4999694;28;20022;-77
2024/02/04 01:39:47;;;;;;;12.82;6.55;;;1.70;99.90;;;;;;4999361;28;20022;-77
2024/02/04 01:42:13;;;;;;;11.90;5.53;;;1.70;99.90;;;;;;5017057;28;20400;-76
2024/02/04 01:44:38;;;;;;;12.35;6.85;;;1.60;99.90;;;;;;4999100;28;20049;-76
2024/02/04 01:47:04;;;;;;;13.23;6.00;;;1.60;99.90;;;;;;4999125;28;20026;-77
2024/02/04 01:49:30;;;;;;;12.63;6.40;;;1.60;99.90;;;;;;5016597;28;20037;-77
2024/02/04 01:51:56;;;;;;;10.38;6.18;;;1.60;99.90;;;;;;5016195;28;20540;-78
2024/02/04 01:54:24;;;;;;;11.15;5.88;;;1.60;99.90;;;;;;5017440;28;20109;-78
2024/02/04 01:56:53;;;;;;;12.40;6.68;;;1.60;99.90;;;;;;5021025;28;20025;-78
2024/02/04 01:59:28;;;;;;;12.38;6.72;;;1.60;99.90;;;;;;5020720;28;20026;-78
2024/02/04 02:01:54;;;;;;;9.60;4.83;;;1.60;99.90;;;;;;5019195;28;20022;-76
2024/02/04 02:04:20;;;;;;;9.32;5.78;;;1.60;99.90;;;;;;4999315;28;20029;-77
2024/02/04 02:06:46;;;;;;;14.73;6.60;;;1.50;99.90;;;;;;5017145;28;20030;-76
2024/02/04 02:09:12;;;;;;;10.52;5.80;;;1.70;99.90;;;;;;5016048;28;20153;-77
2024/02/04 02:11:42;;;;;;;14.20;7.40;;;1.50;99.90;;;;;;4998275;28;20085;-77
2024/02/04 02:14:16;;;;;;;12.93;6.47;;;1.50;99.90;;;;;;5016562;28;20093;-76
2024/02/04 02:16:45;;;;;;;12.32;5.82;;;1.50;99.90;;;;;;5017332;28;20072;-76
2024/02/04 02:19:30;;;;;;;14.32;7.07;;;1.50;99.90;;;;;;4998631;28;20053;-77
2024/02/04 02:22:13;;;;;;;18.33;6.68;;;1.50;99.90;;;;;;4999022;28;20488;-77
2024/02/04 02:24:41;;;;;;;11.25;6.63;;;1.50;99.90;;;;;;4999064;28;20488;-77
2024/02/04 02:27:07;;;;;;;14.68;5.65;;;1.50;99.90;;;;;;4998537;28;20041;-77
2024/02/04 02:29:32;;;;;;;12.25;7.03;;;1.40;99.90;;;;;;5016045;28;20034;-77
2024/02/04 02:31:59;;;;;;;16.45;5.88;;;1.40;99.90;;;;;;5015290;28;20034;-77
2024/02/04 02:34:25;;;;;;;10.68;6.00;;;1.40;99.90;;;;;;4997696;28;20045;-77
2024/02/04 02:36:59;;;;;;;11.52;5.82;;;1.30;99.90;;;;;;4998848;28;20073;-77
2024/02/04 02:39:32;;;;;;;9.63;5.88;;;1.30;99.90;;;;;;5016535;28;20026;-76
2024/02/04 02:42:01;;;;;;;17.67;5.53;;;1.40;99.90;;;;;;5015255;28;20077;-77
2024/02/04 02:44:28;;;;;;;11.73;6.28;;;1.50;99.90;;;;;;5018025;28;20049;-77
2024/02/04 02:47:00;;;;;;;15.52;7.50;;;1.30;99.90;;;;;;5019855;28;20026;-76
2024/02/04 02:49:26;;;;;;;13.70;6.10;;;1.20;99.90;;;;;;5019507;28;20040;-77
2024/02/04 02:51:52;;;;;;;12.63;5.85;;;1.20;99.90;;;;;;5019222;28;20105;-77
2024/02/04 02:54:18;;;;;;;14.93;7.38;;;1.30;99.90;;;;;;5001740;28;20503;-77
2024/02/04 02:56:44;;;;;;;12.65;7.03;;;1.40;99.90;;;;;;5019902;28;20028;-77
2024/02/04 02:59:09;;;;;;;16.42;7.07;;;1.30;99.90;;;;;;5001731;28;20026;-77
2024/02/04 03:01:39;;;;;;;19.20;7.88;;;1.30;99.90;;;;;;5001423;28;20026;-77
2024/02/04 03:04:05;;;;;;;13.82;7.43;;;1.30;99.90;;;;;;5001781;28;20030;-77
2024/02/04 03:06:30;;;;;;;14.88;6.18;;;1.50;99.90;;;;;;5020562;28;20542;-76
2024/02/04 03:08:56;;;;;;;14.68;6.78;;;1.70;99.90;;;;;;5019175;28;20029;-77
2024/02/04 03:11:21;;;;;;;12.55;6.82;;;1.60;99.90;;;;;;5019019;28;20041;-76
2024/02/04 03:13:47;;;;;;;11.38;6.20;;;1.60;99.90;;;;;;5019182;28;20108;-76
2024/02/04 03:16:13;;;;;;;11.75;6.82;;;1.60;99.90;;;;;;5001296;28;20029;-77
2024/02/04 03:18:42;;;;;;;17.10;7.72;;;1.50;99.90;;;;;;5001462;28;20116;-76
2024/02/04 03:21:17;;;;;;;13.35;6.93;;;1.60;99.90;;;;;;5001261;28;20036;-77
2024/02/04 03:23:44;;;;;;;13.50;6.65;;;1.60;99.90;;;;;;5018903;28;20152;-77
2024/02/04 03:26:10;;;;;;;13.15;6.75;;;1.60;99.90;;;;;;5001416;28;20053;-77
2024/02/04 03:28:36;;;;;;;10.38;6.57;;;1.60;99.90;;;;;;5001946;28;20030;-77
2024/02/04 03:31:02;;;;;;;11.40;6.72;;;1.70;99.90;;;;;;5018737;28;20026;-78
2024/02/04 03:33:28;;;;;;;11.45;5.57;;;1.70;99.90;;;;;;5018806;28;20026;-78
2024/02/04 03:35:54;;;;;;;11.13;7.28;;;1.80;99.90;;;;;;5001970;28;20072;-78
2024/02/04 03:38:19;;;;;;;10.27;6.32;;;1.80;99.90;;;;;;5019860;28;20030;-78
2024/02/04 03:40:45;;;;;;;11.98;6.25;;;1.80;99.90;;;;;;5000980;28;20077;-77
2024/02/04 03:43:11;;;;;;;12.30;6.80;;;1.90;99.90;;;;;;5019574;28;20022;-77
2024/02/04 03:45:37;;;;;;;8.30;5.68;;;1.90;99.90;;;;;;5019426;28;20030;-77
2024/02/04 03:48:03;;;;;;;10.50;6.60;;;1.90;99.90;;;;;;5018738;28;20052;-77
2024/02/04 03:50:29;;;;;;;8.98;5.70;;;1.90;99.90;;;;;;5001097;28;20033;-76
2024/02/04 03:52:54;;;;;;;9.45;4.95;;;1.90;99.90;;;;;;5001401;28;20129;-77
2024/02/04 03:55:20;;;;;;;11.45;6.28;;;1.90;99.90;;;;;;5018666;28;20044;-78
2024/02/04 03:57:46;;;;;;;11.30;5.28;;;1.90;99.90;;;;;;5018749;28;20053;-78
2024/02/04 04:00:12;;;;;;;9.23;5.57;;;1.90;99.90;;;;;;5001335;28;20471;-78
2024/02/04 04:02:38;;;;;;;9.45;5.75;;;2.00;99.90;;;;;;5019378;28;20165;-78
2024/02/04 04:05:04;;;;;;;7.80;5.22;;;2.00;99.90;;;;;;5001178;28;20065;-77
2024/02/04 04:07:30;;;;;;;6.45;5.00;;;2.10;99.90;;;;;;5018511;28;20022;-78
2024/02/04 04:09:56;;;;;;;9.40;5.72;;;2.20;99.90;;;;;;5000465;28;20032;-77
2024/02/04 04:12:21;;;;;;;8.88;5.70;;;2.20;99.90;;;;;;5001440;28;20036;-77
2024/02/04 04:14:47;;;;;;;11.15;5.68;;;2.30;99.90;;;;;;5000752;28;20021;-76
2024/02/04 04:17:13;;;;;;;12.70;6.13;;;2.20;99.90;;;;;;5001477;28;20120;-77
2024/02/04 04:19:39;;;;;;;9.02;5.32;;;2.20;99.90;;;;;;5017606;28;20036;-78
2024/02/04 04:22:04;;;;;;;8.77;5.90;;;2.30;99.90;;;;;;5000199;28;20397;-79
2024/02/04 04:24:30;;;;;;;11.60;6.97;;;2.20;99.90;;;;;;5016466;28;20022;-77
2024/02/04 04:26:56;;;;;;;12.13;4.82;;;2.20;99.90;;;;;;4999963;28;20030;-76
2024/02/04 04:29:21;;;;;;;9.77;5.30;;;2.20;99.90;;;;;;5000028;28;20057;-77
2024/02/04 04:31:48;;;;;;;9.48;6.05;;;2.20;99.90;;;;;;5018657;28;20125;-77
2024/02/04 04:34:13;;;;;;;10.02;5.78;;;2.10;99.90;;;;;;5000586;28;20078;-76
2024/02/04 04:36:39;;;;;;;7.18;5.10;;;2.00;99.90;;;;;;5008595;28;20057;-76
2024/02/04 04:39:05;;;;;;;9.57;5.30;;;2.00;99.90;;;;;;5033131;28;20022;-76
2024/02/04 04:41:31;;;;;;;9.75;5.72;;;1.90;99.90;;;;;;5015246;28;20033;-77
2024/02/04 04:43:56;;;;;;;7.85;4.90;;;1.90;99.90;;;;;;5012729;28;20062;-76
2024/02/04 04:46:22;;;;;;;10.35;5.63;;;1.90;99.90;;;;;;5028469;28;20030;-76
2024/02/04 04:48:47;;;;;;;10.63;5.55;;;1.80;99.90;;;;;;5030603;28;20033;-77
2024/02/04 04:51:13;;;;;;;8.93;6.07;;;1.60;99.90;;;;;;5012106;28;20030;-76
2024/02/04 04:53:39;;;;;;;7.78;5.60;;;1.60;99.90;;;;;;5029626;28;20036;-76
2024/02/04 04:56:05;;;;;;;10.75;6.03;;;1.50;99.90;;;;;;5031732;28;20021;-78
2024/02/04 04:58:31;;;;;;;11.90;5.40;;;1.60;99.90;;;;;;5016577;28;20052;-76
2024/02/04 05:00:56;;;;;;;13.18;5.63;;;1.60;99.90;;;;;;5035046;28;20025;-78
2024/02/04 05:03:22;;;;;;;9.05;5.07;;;1.60;99.90;;;;;;5034013;28;20041;-77
2024/02/04 05:05:48;;;;;;;9.13;4.93;;;1.50;99.90;;;;;;5035474;28;20029;-75
2024/02/04 05:08:15;;;;;;;12.43;5.75;;;1.50;99.90;;;;;;5036966;28;20033;-77
2024/02/04 05:10:40;;;;;;;8.57;5.45;;;1.50;99.90;;;;;;5036512;28;20010;-74
2024/02/04 05:13:07;;;;;;;8.18;4.90;;;1.50;99.90;;;;;;5036245;28;20040;-77
2024/02/04 05:15:34;;;;;;;11.13;5.57;;;1.60;99.90;;;;;;5036796;28;20038;-74
2024/02/04 05:18:00;;;;;;;7.43;4.93;;;1.40;99.90;;;;;;5019079;28;20006;-76
2024/02/04 05:20:25;;;;;;;8.50;4.88;;;1.50;99.90;;;;;;5001553;28;20056;-77
2024/02/04 05:22:51;;;;;;;7.97;4.65;;;1.50;99.90;;;;;;5017343;28;20026;-78
2024/02/04 05:25:17;;;;;;;6.30;4.65;;;1.60;99.90;;;;;;5017517;28;20034;-78
2024/02/04 05:27:43;;;;;;;8.68;5.43;;;1.70;99.90;;;;;;4999396;28;20034;-76
2024/02/04 05:30:09;;;;;;;9.05;5.35;;;1.60;99.90;;;;;;5016817;28;20041;-77
2024/02/04 05:32:35;;;;;;;9.63;5.32;;;1.60;99.90;;;;;;4999313;28;20096;-77
2024/02/04 05:35:01;;;;;;;13.40;7.50;;;1.60;99.90;;;;;;5017121;28;20091;-77
2024/02/04 05:37:26;;;;;;;10.70;7.45;;;1.50;99.90;;;;;;4999469;28;20069;-79
2024/02/04 05:39:52;;;;;;;9.15;6.38;;;1.80;99.90;;;;;;4999754;28;20022;-77
2024/02/04 05:42:17;;;;;;;10.43;5.63;;;1.60;99.90;;;;;;5017194;28;20030;-79
2024/02/04 05:44:43;;;;;;;10.52;5.72;;;1.50;99.90;;;;;;5016388;28;20113;-78
2024/02/04 05:47:09;;;;;;;6.75;4.93;;;1.40;99.90;;;;;;5016559;28;20069;-77
2024/02/04 05:49:34;;;;;;;8.48;4.28;;;1.50;99.90;;;;;;5015624;28;20048;-76
2024/02/04 05:52:00;;;;;;;10.20;5.30;;;1.40;99.90;;;;;;5015925;28;20088;-77
2024/02/04 05:54:26;;;;;;;7.97;5.18;;;1.60;99.90;;;;;;5016489;28;20030;-78
2024/02/04 05:56:51;;;;;;;9.90;5.10;;;1.30;99.90;;;;;;5017767;28;20053;-77
2024/02/04 05:59:17;;;;;;;13.48;5.90;;;1.30;99.90;;;;;;5015638;28;20393;-78
2024/02/04 06:01:44;;;;;;;10.13;5.18;;;1.40;99.90;;;;;;5017600;28;20026;-78
2024/02/04 06:04:10;;;;;;;6.88;4.43;;;1.30;99.90;;;;;;5017357;28;20037;-78
2024/02/04 06:06:35;;;;;;;7.97;5.25;;;1.30;99.90;;;;;;4999660;28;20527;-77
2024/02/04 06:09:01;;;;;;;15.38;5.45;;;1.30;99.90;;;;;;5015488;28;20046;-77
2024/02/04 06:11:27;;;;;;;9.38;5.07;;;1.20;99.90;;;;;;5016696;28;20025;-77
2024/02/04 06:13:53;;;;;;;8.05;4.88;;;1.20;99.90;;;;;;5015876;28;20042;-77
2024/02/04 06:16:19;;;;;;;9.13;5.68;;;1.10;99.90;;;;;;5016409;28;20037;-77
2024/02/04 06:18:44;;;;;;;8.65;4.28;;;1.00;99.90;;;;;;5016251;28;20049;-78
2024/02/04 06:21:10;;;;;;;9.10;5.97;;;1.00;99.90;;;;;;5020632;28;20029;-78
2024/02/04 06:23:38;;;;;;;7.43;5.80;;;1.00;99.90;;;;;;5002511;28;20029;-78
2024/02/04 06:26:05;;;;;;;10.77;6.20;;;1.00;99.90;;;;;;5002816;28;20036;-77
2024/02/04 06:28:31;;;;;;;8.52;5.78;;;1.20;99.90;;;;;;5020731;28;20018;-79
2024/02/04 06:30:57;;;;;;;10.13;6.55;;;1.00;99.90;;;;;;5021145;28;20081;-77
2024/02/04 06:33:24;;;;;;;10.20;6.45;;;0.90;99.90;;;;;;5020439;28;20491;-77
2024/02/04 06:35:50;;;;;;;9.05;6.00;;;0.90;99.90;;;;;;5019983;28;20428;-77
2024/02/04 06:38:16;;;;;;;17.88;7.13;;;0.90;99.90;;;;;;5002356;28;20488;-76
2024/02/04 06:40:42;;;;;;;11.30;5.90;;;1.30;99.90;;;;;;5018649;28;20033;-76
2024/02/04 06:43:07;;;;;;;10.52;5.88;;;1.00;99.90;;;;;;5003769;28;20022;-77
2024/02/04 06:45:33;;;;;;;13.65;5.88;;;1.00;99.90;;;;;;5020789;28;20025;-77
2024/02/04 06:47:59;;;;;;;19.67;6.32;;;1.70;99.90;;;;;;5005881;28;20033;-77
2024/02/04 06:50:25;;;;;;;14.13;6.60;;;1.60;99.90;;;;;;5016758;28;20030;-77
2024/02/04 06:52:51;;;;;;;11.93;5.88;;;1.50;99.90;;;;;;5021903;28;20535;-79
2024/02/04 06:55:17;;;;;;;13.32;7.35;;;1.70;99.90;;;;;;5021578;28;20072;-78
2024/02/04 06:57:43;;;;;;;13.88;6.97;;;1.70;99.90;;;;;;5018848;28;20022;-77
2024/02/04 07:00:09;;;;;;;14.13;6.53;;;1.60;99.90;;;;;;5002364;28;20025;-77
2024/02/04 07:02:35;;;;;;;10.73;5.35;;;1.80;99.90;;;;;;4998090;28;20023;-76
2024/02/04 07:05:01;;;;;;;13.02;7.75;;;1.90;99.90;;;;;;4985021;28;20031;-77
2024/02/04 07:07:26;;;;;;;9.05;6.70;;;1.90;99.90;;;;;;4982283;28;20396;-77
2024/02/04 07:09:52;;;;;;;14.93;6.68;;;1.90;99.90;;;;;;4999392;28;20046;-77
2024/02/04 07:12:17;;;;;;;11.48;6.25;;;2.00;99.90;;;;;;4999979;28;20030;-77
2024/02/04 07:14:43;;;;;;;12.70;7.15;;;2.00;99.90;;;;;;5000378;28;20507;-77
2024/02/04 07:17:09;;;;;;;9.70;6.25;;;2.00;99.90;;;;;;4999453;28;20030;-77
2024/02/04 07:19:35;;;;;;;17.60;8.82;;;2.00;99.90;;;;;;4999207;28;20449;-77
2024/02/04 07:22:01;;;;;;;10.10;6.78;;;2.10;99.90;;;;;;4999378;28;20070;-77
2024/02/04 07:24:27;;;;;;;14.63;7.63;;;2.10;99.90;;;;;;4979972;28;20109;-78
2024/02/04 07:26:53;;;;;;;13.82;7.57;;;2.10;99.90;;;;;;4981287;28;20061;-77
2024/02/04 07:29:19;;;;;;;16.45;8.00;;;2.10;99.90;;;;;;4981600;28;20097;-76
2024/02/04 07:31:44;;;;;;;17.65;8.88;;;2.10;99.90;;;;;;4998877;28;20065;-77
2024/02/04 07:34:10;;;;;;;15.60;8.80;;;2.20;99.90;;;;;;4981661;28;20117;-78
2024/02/04 07:36:35;;;;;;;19.67;10.20;;;2.20;99.90;;;;;;4999641;28;20027;-78
2024/02/04 07:39:04;;;;;;;22.77;11.30;;;2.40;99.90;;;;;;4982378;28;20433;-77
2024/02/04 07:41:30;;;;;;;14.60;10.00;;;2.40;99.90;;;;;;4981208;28;20030;-78
2024/02/04 07:43:56;;;;;;;13.45;8.30;;;2.50;99.90;;;;;;4999460;28;20026;-77
2024/02/04 07:46:22;;;;;;;17.58;10.07;;;2.60;99.90;;;;;;4981753;28;20040;-78
2024/02/04 07:48:47;;;;;;;18.75;8.95;;;2.60;99.90;;;;;;4981574;28;20112;-78
2024/02/04 07:51:13;;;;;;;20.85;9.85;;;2.70;99.90;;;;;;4980999;28;20038;-76
2024/02/04 07:53:39;;;;;;;19.38;10.93;;;2.80;99.90;;;;;;4999774;28;20026;-77
2024/02/04 07:56:06;;;;;;;16.88;9.95;;;2.80;99.90;;;;;;4983335;28;20029;-77
2024/02/04 07:58:32;;;;;;;17.45;8.90;;;2.90;99.90;;;;;;5000066;28;20019;-77
2024/02/04 08:00:58;;;;;;;19.25;9.00;;;2.90;99.90;;;;;;4982395;28;20018;-77
2024/02/04 08:03:24;;;;;;;14.35;9.27;;;2.90;99.90;;;;;;4999401;28;20029;-77
2024/02/04 08:05:49;;;;;;;13.73;7.57;;;3.00;99.90;;;;;;4980890;28;20026;-77
2024/02/04 08:08:15;;;;;;;16.00;9.30;;;3.00;99.90;;;;;;4999356;28;20033;-77
2024/02/04 08:10:40;;;;;;;18.42;10.75;;;3.10;99.90;;;;;;4998847;28;20118;-79
2024/02/04 08:13:06;;;;;;;16.17;8.93;;;3.10;99.90;;;;;;4981934;28;20117;-78
2024/02/04 08:15:32;;;;;;;16.55;7.90;;;3.20;99.90;;;;;;4981529;28;20026;-77
2024/02/04 08:17:57;;;;;;;11.20;7.07;;;3.30;99.90;;;;;;4980948;28;20085;-77
2024/02/04 08:20:23;;;;;;;14.93;8.20;;;3.50;99.90;;;;;;4982168;28;20030;-77
2024/02/04 08:22:49;;;;;;;13.70;7.40;;;3.50;99.90;;;;;;4999286;28;20050;-78
2024/02/04 08:25:15;;;;;;;21.65;8.02;;;3.60;99.90;;;;;;5004646;28;20097;-78
2024/02/04 08:27:40;;;;;;;13.73;7.57;;;3.60;99.90;;;;;;4982672;28;20118;-78
2024/02/04 08:30:06;;;;;;;14.02;6.57;;;3.70;99.90;;;;;;4998996;28;20030;-79
2024/02/04 08:32:32;;;;;;;16.23;8.57;;;3.70;99.90;;;;;;4998303;28;20027;-79
2024/02/04 08:34:58;;;;;;;16.45;8.65;;;3.70;99.90;;;;;;4980476;28;20042;-77
2024/02/04 08:37:23;;;;;;;20.40;11.55;;;3.80;99.90;;;;;;4998415;28;20082;-76
2024/02/04 08:39:49;;;;;;;16.80;9.38;;;4.00;99.90;;;;;;4980371;28;20054;-77
2024/02/04 08:42:15;;;;;;;11.77;8.23;;;4.10;99.90;;;;;;4998465;28;20493;-78
2024/02/04 08:44:41;;;;;;;13.50;7.03;;;4.20;99.90;;;;;;4999121;28;20054;-77
2024/02/04 08:47:10;;;;;;;11.90;7.05;;;4.30;99.90;;;;;;4981375;28;20073;-77
2024/02/04 08:49:36;;;;;;;12.88;6.40;;;4.40;99.90;;;;;;4998865;28;20025;-75
2024/02/04 08:52:02;;;;;;;12.52;7.25;;;4.50;99.90;;;;;;4998067;28;20026;-78
2024/02/04 08:54:29;;;;;;;14.00;6.85;;;4.50;99.90;;;;;;4998918;28;20034;-78
2024/02/04 08:56:55;;;;;;;12.40;7.03;;;4.50;99.90;;;;;;4981715;28;20026;-78
2024/02/04 08:59:21;;;;;;;11.65;6.75;;;4.60;99.90;;;;;;4998617;28;20023;-77
2024/02/04 09:01:46;;;;;;;10.80;6.85;;;4.70;99.90;;;;;;4996836;28;20022;-77
2024/02/04 09:04:12;;;;;;;11.30;6.95;;;4.80;99.90;;;;;;4997498;28;20022;-76
2024/02/04 09:06:38;;;;;;;12.75;8.60;;;4.90;99.90;;;;;;4997676;28;20442;-77
2024/02/04 09:09:03;;;;;;;14.30;9.05;;;5.10;99.90;;;;;;4979513;28;20085;-76
2024/02/04 09:11:29;;;;;;;14.15;8.85;;;5.50;99.90;;;;;;4979092;28;20026;-77
2024/02/04 09:13:55;;;;;;;12.88;8.07;;;5.60;99.90;;;;;;4978927;28;20098;-77
2024/02/04 09:16:21;;;;;;;13.73;7.47;;;5.70;99.90;;;;;;4996874;28;20058;-77
2024/02/04 09:18:47;;;;;;;10.45;7.03;;;5.80;99.90;;;;;;4978889;28;20034;-76
2024/02/04 09:21:13;;;;;;;16.55;8.45;;;5.90;99.90;;;;;;4995970;28;20023;-76
2024/02/04 09:23:39;;;;;;;17.80;8.45;;;6.10;99.90;;;;;;4995692;28;20027;-76
2024/02/04 09:26:05;;;;;;;16.92;9.35;;;6.30;99.90;;;;;;4977349;28;20034;-76
2024/02/04 09:28:30;;;;;;;19.20;10.15;;;6.40;99.90;;;;;;4979146;28;20026;-76
2024/02/04 09:30:56;;;;;;;18.80;7.50;;;6.60;99.90;;;;;;4978244;28;20033;-77
2024/02/04 09:33:22;;;;;;;13.48;7.20;;;6.70;99.90;;;;;;4979617;28;20113;-77
2024/02/04 09:35:49;;;;;;;14.15;7.05;;;6.80;99.90;;;;;;4995929;28;20065;-77
2024/02/04 09:38:15;;;;;;;12.73;6.60;;;7.00;99.90;;;;;;4995929;28;20026;-76
2024/02/04 09:40:41;;;;;;;8.40;5.78;;;7.20;99.90;;;;;;4997085;28;20022;-77
2024/02/04 09:43:07;;;;;;;8.95;5.93;;;7.40;99.90;;;;;;4985253;28;20023;-77
2024/02/04 09:45:33;;;;;;;11.63;6.65;;;7.50;99.90;;;;;;5007259;28;20384;-75
2024/02/04 09:48:02;;;;;;;12.90;6.72;;;7.60;99.90;;;;;;5010326;28;20094;-77
2024/02/04 09:50:28;;;;;;;11.00;7.45;;;7.70;99.90;;;;;;4995021;28;20026;-77
2024/02/04 09:53:00;;;;;;;15.05;7.45;;;7.90;99.90;;;;;;5012707;28;20033;-77
2024/02/04 09:55:26;;;;;;;13.25;7.07;;;8.10;99.90;;;;;;5012396;28;20022;-77
2024/02/04 09:57:52;;;;;;;20.73;8.63;;;8.20;99.90;;;;;;5013419;28;20484;-77
2024/02/04 10:00:21;;;;;;;13.75;7.90;;;8.50;99.90;;;;;;5013063;28;20049;-75
2024/02/04 10:02:48;;;;;;;11.88;6.78;;;8.60;99.90;;;;;;5013169;28;20025;-77
2024/02/04 10:05:17;;;;;;;8.30;6.25;;;8.70;99.90;;;;;;5012650;28;20412;-76
2024/02/04 10:07:43;;;;;;;8.80;6.57;;;9.00;99.90;;;;;;4994969;28;20022;-77
2024/02/04 10:10:10;;;;;;;4.70;4.20;;;9.10;99.90;;;;;;5012820;28;20053;-77
2024/02/04 10:12:38;;;;;;;7.85;4.35;;;9.10;99.90;;;;;;4995853;28;20036;-77
2024/02/04 10:15:05;;;;;;;7.13;4.80;;;9.20;99.90;;;;;;5014930;28;20084;-78
2024/02/04 10:17:31;;;;;;;9.63;5.95;;;9.30;99.90;;;;;;5014451;28;20641;-77
2024/02/04 10:19:57;;;;;;;10.30;6.65;;;9.30;99.90;;;;;;4995290;28;20053;-77
2024/02/04 10:22:26;;;;;;;18.27;9.77;;;9.50;99.90;;;;;;5014134;28;20045;-77
2024/02/04 10:24:52;;;;;;;9.50;5.75;;;9.40;99.90;;;;;;4996203;28;20053;-78
2024/02/04 10:27:19;;;;;;;12.00;6.10;;;9.50;99.90;;;;;;5013654;28;20108;-77
2024/02/04 10:29:44;;;;;;;10.82;6.20;;;9.60;99.90;;;;;;5013380;28;20022;-77
2024/02/04 10:32:10;;;;;;;8.13;5.70;;;9.60;99.90;;;;;;5014455;28;20129;-77
2024/02/04 10:34:39;;;;;;;15.13;7.15;;;9.60;99.90;;;;;;5013566;28;20062;-77
2024/02/04 10:37:05;;;;;;;9.38;5.90;;;9.60;99.90;;;;;;5013926;28;20073;-78
2024/02/04 10:39:31;;;;;;;13.05;5.53;;;9.70;99.90;;;;;;4995665;28;20022;-78
2024/02/04 10:42:03;;;;;;;12.32;6.10;;;9.70;99.90;;;;;;4995397;28;20022;-78
2024/02/04 10:44:32;;;;;;;10.32;6.00;;;9.80;99.90;;;;;;4995907;28;20032;-78
2024/02/04 10:47:02;;;;;;;8.88;5.80;;;9.90;99.90;;;;;;4997189;28;20030;-77
2024/02/04 10:49:28;;;;;;;11.27;6.57;;;9.90;99.90;;;;;;4995902;28;20030;-76
2024/02/04 10:51:57;;;;;;;9.75;6.25;;;10.10;99.90;;;;;;4996243;28;20029;-76
2024/02/04 10:54:24;;;;;;;9.98;5.65;;;10.40;99.90;;;;;;5013290;28;20026;-77
2024/02/04 10:56:57;;;;;;;10.25;6.80;;;10.70;99.90;;;;;;5014665;28;20014;-77
2024/02/04 10:59:23;;;;;;;17.73;9.70;;;11.10;99.90;;;;;;4996654;28;20033;-79
2024/02/04 11:01:50;;;;;;;12.68;6.25;;;11.40;99.90;;;;;;4996154;28;20037;-77
2024/02/04 11:04:17;;;;;;;6.35;3.80;;;11.60;99.90;;;;;;4997556;28;20057;-77
2024/02/04 11:06:44;;;;;;;6.88;2.55;;;12.00;99.90;;;;;;5018369;28;20051;-77
2024/02/04 11:09:10;;;;;;;5.57;3.33;;;12.20;99.90;;;;;;5018072;28;20018;-77
2024/02/04 11:11:37;;;;;;;4.05;2.88;;;12.40;99.80;;;;;;5000284;28;20555;-78
2024/02/04 11:14:07;;;;;;;1.90;1.70;;;12.40;98.70;;;;;;5018572;28;20033;-78
2024/02/04 11:16:42;;;;;;;2.03;1.80;;;12.50;97.70;;;;;;5018813;28;20018;-76
2024/02/04 11:19:12;;;;;;;2.10;1.65;;;12.60;96.70;;;;;;5000688;28;20041;-77
2024/02/04 11:21:56;;;;;;;2.63;1.70;;;12.70;96.20;;;;;;5000579;28;20018;-78
2024/02/04 11:24:33;;;;;;;2.70;1.52;;;12.70;95.40;;;;;;5019690;28;20030;-77
2024/02/04 11:26:59;;;;;;;1.95;1.48;;;12.80;95.00;;;;;;5023234;28;20030;-77
2024/02/04 11:29:26;;;;;;;1.80;1.70;;;13.00;94.60;;;;;;5015637;28;20022;-78
2024/02/04 11:31:52;;;;;;;3.33;1.58;;;13.10;93.60;;;;;;5015844;28;20041;-76
2024/02/04 11:34:18;;;;;;;6.38;1.88;;;13.10;92.90;;;;;;5015809;28;20416;-77
2024/02/04 11:36:45;;;;;;;1.73;1.50;;;13.20;92.80;;;;;;4998661;28;20057;-77
2024/02/04 11:39:18;;;;;;;1.58;1.45;;;13.30;92.10;;;;;;5015434;28;20440;-76
2024/02/04 11:41:48;;;;;;;4.40;1.52;;;13.40;91.70;;;;;;5015081;28;20088;-77
2024/02/04 11:44:24;;;;;;;6.10;1.52;;;13.50;91.60;;;;;;5015914;28;20052;-77
2024/02/04 11:46:51;;;;;;;4.22;1.38;;;13.50;91.30;;;;;;5015672;28;20061;-76
2024/02/04 11:49:19;;;;;;;3.22;2.35;;;13.70;91.70;;;;;;4997804;28;20028;-77
2024/02/04 11:51:48;;;;;;;5.57;2.30;;;13.70;91.90;;;;;;5015741;28;20388;-77
2024/02/04 11:54:15;;;;;;;6.00;2.47;;;13.70;92.10;;;;;;4998351;28;20037;-77
2024/02/04 11:56:41;;;;;;;2.55;1.77;;;13.70;92.20;;;;;;5015861;28;20018;-77
2024/02/04 11:59:07;;;;;;;2.58;1.83;;;13.80;90.80;;;;;;5014774;28;20118;-77
2024/02/04 12:01:36;;;;;;;3.72;2.17;;;13.90;85.30;;;;;;5015014;28;20064;-77
2024/02/04 12:04:13;;;;;;;10.75;6.43;;;13.90;84.00;;;;;;4997310;28;20393;-77
2024/02/04 12:06:40;;;;;;;12.75;5.95;;;13.90;83.80;;;;;;5014678;28;20017;-77
2024/02/04 12:09:08;;;;;;;9.68;5.63;;;14.00;84.00;;;;;;5015188;28;20057;-77
2024/02/04 12:11:36;;;;;;;4.45;3.13;;;14.10;82.70;;;;;;4997091;28;20030;-77
2024/02/04 12:14:05;;;;;;;7.68;6.20;;;14.20;82.20;;;;;;5014344;28;20018;-76
2024/02/04 12:16:32;;;;;;;5.40;3.78;;;14.20;82.40;;;;;;4996151;28;20029;-77
2024/02/04 12:18:58;;;;;;;8.40;4.32;;;14.40;83.10;;;;;;4996647;28;20029;-76
2024/02/04 12:21:25;;;;;;;6.07;3.70;;;14.50;83.40;;;;;;5014113;28;20404;-77
2024/02/04 12:23:52;;;;;;;6.93;3.50;;;14.50;82.50;;;;;;5014516;28;20116;-77
2024/02/04 12:26:18;;;;;;;6.03;4.22;;;14.60;82.60;;;;;;5014415;28;20400;-76
2024/02/04 12:28:43;;;;;;;7.05;3.88;;;14.60;81.60;;;;;;5014211;28;20018;-77
2024/02/04 12:31:18;;;;;;;7.82;4.65;;;14.60;82.00;;;;;;4995620;28;20036;-77
2024/02/04 12:33:44;;;;;;;10.52;5.18;;;14.60;81.10;;;;;;4996917;28;20057;-78
2024/02/04 12:36:09;;;;;;;22.15;10.15;;;14.60;82.80;;;;;;4995685;28;20054;-78
2024/02/04 12:38:36;;;;;;;7.70;4.47;;;14.60;85.40;;;;;;5014029;28;20060;-76
2024/02/04 12:41:02;;;;;;;5.95;3.78;;;14.70;83.20;;;;;;5013464;28;20022;-78
2024/02/04 12:43:28;;;;;;;6.32;3.83;;;14.70;82.70;;;;;;5014198;28;20030;-77